Ghardaia, Algeria
Current Conditions -  °F | °C
As of 7:00 AM on Saturday 29 Nov 2014 (Local Time) from DAUG Reporting Station
Sand / Dust Storm Sand / Dust Storm  
Wind Chill: 63°   Ceiling: 4600
Heat Index: 63°   Visibility: 1.2mi
Dew Point: 39°   Wind: 16mph
Humidity: 42%   Direction: 160°SSE
Pressure: 29.62"   Gusts: NA
Location:  32.49°N, 3.68°E
Report Text: DAUG 290600Z 16014KT 2000 DRSA BKN046 BKN090 17/04 Q1003
Loading
Personal Weather Stations






























Interactive Weather Map New forecast layout! Learn more

10-Day Weather Forecast

Advertisements
Track Severe Weather on mobile